createdAt,value
2016-12-20T00:00:23.479Z,0
2016-12-20T00:01:23.463Z,0
2016-12-20T00:02:23.444Z,0
2016-12-20T00:03:23.425Z,0
2016-12-20T00:04:23.402Z,0
2016-12-20T00:05:23.392Z,0
2016-12-20T00:06:23.370Z,0
2016-12-20T00:07:23.352Z,0
2016-12-20T00:08:23.362Z,0
2016-12-20T00:09:23.311Z,0
2016-12-20T00:10:23.295Z,0
2016-12-20T00:11:23.295Z,0
2016-12-20T00:12:23.254Z,0
2016-12-20T00:13:23.241Z,0
2016-12-20T00:14:23.216Z,0
2016-12-20T00:15:23.201Z,0
2016-12-20T00:16:23.179Z,0
2016-12-20T00:17:23.163Z,0
2016-12-20T00:18:23.146Z,0
2016-12-20T00:19:23.130Z,0
2016-12-20T00:20:23.109Z,0
2016-12-20T00:21:23.124Z,0
2016-12-20T00:22:23.070Z,0
2016-12-20T00:23:23.050Z,0
2016-12-20T00:24:23.031Z,0
2016-12-20T00:25:23.014Z,0
2016-12-20T00:26:23.024Z,0
2016-12-20T00:27:22.975Z,0
2016-12-20T00:28:22.955Z,0
2016-12-20T00:29:22.947Z,0
2016-12-20T00:30:22.917Z,0
2016-12-20T00:31:22.902Z,0
2016-12-20T00:32:22.889Z,0
2016-12-20T00:33:22.859Z,0
2016-12-20T00:34:22.847Z,0
2016-12-20T00:35:22.822Z,0
2016-12-20T00:36:22.810Z,0
2016-12-20T00:37:22.789Z,0
2016-12-20T00:38:22.772Z,0
2016-12-20T00:39:22.781Z,0
2016-12-20T00:40:22.736Z,0
2016-12-20T00:41:22.756Z,0
2016-12-20T00:42:22.696Z,0
2016-12-20T00:43:22.686Z,0
2016-12-20T00:44:22.658Z,0
2016-12-20T00:45:22.644Z,0
2016-12-20T00:46:22.621Z,0
2016-12-20T00:47:22.604Z,0
2016-12-20T00:48:22.917Z,0
2016-12-20T00:49:22.565Z,0
2016-12-20T00:50:22.553Z,0
2016-12-20T00:51:22.532Z,0
2016-12-20T00:52:22.507Z,0
2016-12-20T00:53:22.487Z,0
2016-12-20T00:54:22.479Z,0
2016-12-20T00:55:22.449Z,0
2016-12-20T00:56:22.437Z,0
2016-12-20T00:57:22.417Z,0
2016-12-20T00:58:22.395Z,0
2016-12-20T00:59:22.380Z,0
2016-12-20T01:00:22.363Z,0
2016-12-20T01:01:22.346Z,0
2016-12-20T01:02:22.319Z,0
2016-12-20T01:03:22.309Z,0
2016-12-20T01:04:22.283Z,0
2016-12-20T01:05:22.268Z,0
2016-12-20T01:06:22.248Z,0
2016-12-20T01:07:22.231Z,0
2016-12-20T01:08:22.213Z,0
2016-12-20T01:09:22.197Z,0
2016-12-20T01:10:22.171Z,0
2016-12-20T01:11:22.191Z,0
2016-12-20T01:12:22.138Z,0
2016-12-20T01:13:22.118Z,0
2016-12-20T01:14:22.101Z,0
2016-12-20T01:15:22.077Z,0
2016-12-20T01:16:22.061Z,0
2016-12-20T01:17:22.043Z,0
2016-12-20T01:18:22.019Z,0
2016-12-20T01:19:21.999Z,0
2016-12-20T01:20:21.985Z,0
2016-12-20T01:21:21.966Z,0
2016-12-20T01:22:21.950Z,0
2016-12-20T01:23:21.927Z,0
2016-12-20T01:24:21.907Z,0
2016-12-20T01:25:21.895Z,0
2016-12-20T01:26:21.868Z,0
2016-12-20T01:27:21.855Z,0
2016-12-20T01:28:21.833Z,0
2016-12-20T01:29:22.128Z,0
2016-12-20T01:30:21.800Z,0
2016-12-20T01:31:21.776Z,0
2016-12-20T01:32:21.759Z,0
2016-12-20T01:33:21.735Z,0
2016-12-20T01:34:21.721Z,0
2016-12-20T01:35:21.702Z,0
2016-12-20T01:36:21.677Z,0
2016-12-20T01:37:21.661Z,0
2016-12-20T01:38:21.645Z,0
2016-12-20T01:39:21.624Z,0
2016-12-20T01:40:21.600Z,0
2016-12-20T01:41:21.581Z,0
2016-12-20T01:42:21.565Z,0
2016-12-20T01:43:21.543Z,0
2016-12-20T01:44:21.521Z,0
2016-12-20T01:45:21.509Z,0
2016-12-20T01:46:21.488Z,0
2016-12-20T01:47:21.466Z,0
2016-12-20T01:48:21.444Z,0
2016-12-20T01:49:21.436Z,0
2016-12-20T01:50:21.411Z,0
2016-12-20T01:51:21.391Z,0
2016-12-20T01:52:21.369Z,0
2016-12-20T01:53:21.349Z,0
2016-12-20T01:54:21.330Z,0
2016-12-20T01:55:21.307Z,0
2016-12-20T01:56:21.295Z,0
2016-12-20T01:57:21.272Z,0
2016-12-20T01:58:21.253Z,0
2016-12-20T01:59:21.556Z,0
2016-12-20T02:00:21.214Z,0
2016-12-20T02:01:21.201Z,0
2016-12-20T02:02:21.327Z,0
2016-12-20T02:03:21.191Z,0
2016-12-20T02:04:21.177Z,0
2016-12-20T02:05:21.427Z,0
2016-12-20T02:06:21.093Z,0
2016-12-20T02:07:21.081Z,0
2016-12-20T02:08:21.062Z,0
2016-12-20T02:09:21.044Z,0
2016-12-20T02:10:21.020Z,0
2016-12-20T02:11:21.000Z,0
2016-12-20T02:12:20.987Z,0
2016-12-20T02:13:20.969Z,0
2016-12-20T02:14:20.942Z,0
2016-12-20T02:15:20.924Z,0
2016-12-20T02:16:20.904Z,0
2016-12-20T02:17:20.883Z,0
2016-12-20T02:18:20.865Z,0
2016-12-20T02:19:20.849Z,0
2016-12-20T02:20:20.825Z,0
2016-12-20T02:21:20.810Z,0
2016-12-20T02:22:20.791Z,0
2016-12-20T02:23:20.765Z,0
2016-12-20T02:24:20.760Z,0
2016-12-20T02:25:20.733Z,0
2016-12-20T02:26:20.713Z,0
2016-12-20T02:27:20.691Z,0
2016-12-20T02:28:20.675Z,0
2016-12-20T02:29:20.655Z,0
2016-12-20T02:30:20.634Z,0
2016-12-20T02:31:20.612Z,0
2016-12-20T02:32:20.592Z,0
2016-12-20T02:33:20.570Z,0
2016-12-20T02:34:20.549Z,0
2016-12-20T02:35:20.538Z,0
2016-12-20T02:36:20.523Z,0
2016-12-20T02:37:20.498Z,0
2016-12-20T02:38:20.480Z,0
2016-12-20T02:39:20.456Z,0
2016-12-20T02:40:33.174Z,0
2016-12-20T02:41:20.417Z,0
2016-12-20T02:42:20.391Z,0
2016-12-20T02:43:20.371Z,0
2016-12-20T02:44:20.359Z,0
2016-12-20T02:45:20.338Z,0
2016-12-20T02:46:20.314Z,0
2016-12-20T02:47:20.295Z,0
2016-12-20T02:48:20.285Z,0
2016-12-20T02:49:20.260Z,0
2016-12-20T02:50:20.243Z,0
2016-12-20T02:51:20.216Z,0
2016-12-20T02:52:20.202Z,0
2016-12-20T02:53:20.180Z,0
2016-12-20T02:54:20.190Z,0
2016-12-20T02:55:20.137Z,0
2016-12-20T02:56:20.124Z,0
2016-12-20T02:57:20.101Z,0
2016-12-20T02:58:20.082Z,0
2016-12-20T02:59:20.068Z,0
2016-12-20T03:00:20.046Z,0
2016-12-20T03:01:20.027Z,0
2016-12-20T03:02:20.006Z,0
2016-12-20T03:03:19.985Z,0
2016-12-20T03:04:19.969Z,0
2016-12-20T03:05:19.945Z,0
2016-12-20T03:06:19.928Z,0
2016-12-20T03:07:19.908Z,0
2016-12-20T03:08:19.888Z,0
2016-12-20T03:09:19.867Z,0
2016-12-20T03:10:19.846Z,0
2016-12-20T03:11:19.833Z,0
2016-12-20T03:12:19.818Z,0
2016-12-20T03:13:19.791Z,0
2016-12-20T03:14:19.770Z,0
2016-12-20T03:15:19.753Z,0
2016-12-20T03:16:19.727Z,0
2016-12-20T03:17:19.704Z,0
2016-12-20T03:18:19.691Z,0
2016-12-20T03:19:19.670Z,0
2016-12-20T03:20:19.682Z,0
2016-12-20T03:21:19.629Z,0
2016-12-20T03:22:19.615Z,0
2016-12-20T03:23:19.590Z,0
2016-12-20T03:24:19.578Z,0
2016-12-20T03:25:19.552Z,0
2016-12-20T03:26:19.537Z,0
2016-12-20T03:27:19.514Z,0
2016-12-20T03:28:19.499Z,0
2016-12-20T03:29:19.476Z,0
2016-12-20T03:30:19.452Z,0
2016-12-20T03:31:19.441Z,0
2016-12-20T03:32:19.412Z,0
2016-12-20T03:33:19.393Z,0
2016-12-20T03:34:19.373Z,0
2016-12-20T03:35:19.358Z,0
2016-12-20T03:36:19.369Z,0
2016-12-20T03:37:19.326Z,0
2016-12-20T03:38:19.301Z,0
2016-12-20T03:39:19.280Z,0
2016-12-20T03:40:19.259Z,0
2016-12-20T03:41:19.236Z,0
2016-12-20T03:42:19.216Z,0
2016-12-20T03:43:19.202Z,0
2016-12-20T03:44:19.187Z,0
2016-12-20T03:45:19.155Z,0
2016-12-20T03:46:19.146Z,0
2016-12-20T03:47:19.123Z,0
2016-12-20T03:48:19.103Z,0
2016-12-20T03:49:19.083Z,0
2016-12-20T03:50:19.063Z,0
2016-12-20T03:51:19.041Z,0
2016-12-20T03:52:19.024Z,0
2016-12-20T03:53:19.002Z,0
2016-12-20T03:54:18.981Z,0
2016-12-20T03:55:18.963Z,0
2016-12-20T03:56:18.941Z,0
2016-12-20T03:57:18.921Z,0
2016-12-20T03:58:18.904Z,0
2016-12-20T03:59:18.883Z,0
2016-12-20T04:00:18.919Z,0
2016-12-20T04:01:18.845Z,0
2016-12-20T04:02:18.823Z,0
2016-12-20T04:03:18.805Z,0
2016-12-20T04:04:18.788Z,0
2016-12-20T04:05:18.768Z,0
2016-12-20T04:06:18.749Z,0
2016-12-20T04:07:18.725Z,0
2016-12-20T04:08:18.736Z,0
2016-12-20T04:09:18.686Z,0
2016-12-20T04:10:18.663Z,0
2016-12-20T04:11:18.646Z,0
2016-12-20T04:12:18.939Z,0
2016-12-20T04:13:18.608Z,0
2016-12-20T04:14:18.585Z,0
2016-12-20T04:15:18.569Z,0
2016-12-20T04:16:18.548Z,0
2016-12-20T04:17:18.551Z,0
2016-12-20T04:18:18.505Z,0
2016-12-20T04:19:18.485Z,0
2016-12-20T04:20:18.468Z,0
2016-12-20T04:21:18.449Z,0
2016-12-20T04:22:18.430Z,0
2016-12-20T04:23:18.411Z,0
2016-12-20T04:24:18.389Z,0
2016-12-20T04:25:18.369Z,0
2016-12-20T04:26:18.353Z,0
2016-12-20T04:27:18.328Z,0
2016-12-20T04:28:18.313Z,0
2016-12-20T04:29:18.292Z,0
2016-12-20T04:30:18.266Z,0
2016-12-20T04:31:18.572Z,0
2016-12-20T04:32:18.231Z,0
2016-12-20T04:33:18.213Z,0
2016-12-20T04:34:18.193Z,0
2016-12-20T04:35:18.173Z,0
2016-12-20T04:36:18.157Z,0
2016-12-20T04:37:18.131Z,0
2016-12-20T04:38:18.142Z,0
2016-12-20T04:39:18.096Z,0
2016-12-20T04:40:18.069Z,0
2016-12-20T04:41:18.055Z,0
2016-12-20T04:42:18.036Z,0
2016-12-20T04:43:18.011Z,0
2016-12-20T04:44:17.994Z,0
2016-12-20T04:45:17.974Z,0
2016-12-20T04:46:17.953Z,0
2016-12-20T04:47:17.927Z,0
2016-12-20T04:48:17.912Z,0
2016-12-20T04:49:17.893Z,0
2016-12-20T04:50:17.869Z,0
2016-12-20T04:51:17.856Z,0
2016-12-20T04:52:17.836Z,0
2016-12-20T04:53:17.822Z,0
2016-12-20T04:54:17.790Z,0
2016-12-20T04:55:17.776Z,0
2016-12-20T04:56:17.757Z,0
2016-12-20T04:57:17.733Z,0
2016-12-20T04:58:18.032Z,0
2016-12-20T04:59:17.698Z,0
2016-12-20T05:00:17.679Z,0
2016-12-20T05:01:17.969Z,0
2016-12-20T05:02:17.632Z,0
2016-12-20T05:03:17.614Z,0
2016-12-20T05:04:17.600Z,0
2016-12-20T05:05:17.571Z,0
2016-12-20T05:06:17.591Z,0
2016-12-20T05:07:17.531Z,0
2016-12-20T05:08:17.518Z,0
2016-12-20T05:09:17.498Z,0
2016-12-20T05:10:17.484Z,0
2016-12-20T05:11:17.457Z,0
2016-12-20T05:12:17.444Z,0
2016-12-20T05:13:17.419Z,0
2016-12-20T05:14:17.397Z,0
2016-12-20T05:15:17.388Z,0
2016-12-20T05:16:17.356Z,0
2016-12-20T05:17:17.334Z,0
2016-12-20T05:18:17.346Z,0
2016-12-20T05:19:17.302Z,0
2016-12-20T05:20:17.276Z,0
2016-12-20T05:21:17.259Z,0
2016-12-20T05:22:17.241Z,0
2016-12-20T05:23:17.220Z,0
2016-12-20T05:24:17.201Z,0
2016-12-20T05:25:17.178Z,0
2016-12-20T05:26:17.160Z,0
2016-12-20T05:27:17.139Z,0
2016-12-20T05:28:17.122Z,0
2016-12-20T05:29:17.098Z,0
2016-12-20T05:30:17.077Z,0
2016-12-20T05:31:17.060Z,0
2016-12-20T05:32:17.040Z,0
2016-12-20T05:33:17.017Z,0
2016-12-20T05:34:16.998Z,0
2016-12-20T05:35:16.978Z,0
2016-12-20T05:36:16.960Z,0
2016-12-20T05:37:16.936Z,0
2016-12-20T05:38:16.917Z,0
2016-12-20T05:39:16.902Z,0
2016-12-20T05:40:16.889Z,0
2016-12-20T05:41:16.856Z,0
2016-12-20T05:42:16.840Z,0
2016-12-20T05:43:16.818Z,0
2016-12-20T05:44:16.805Z,0
2016-12-20T05:45:16.777Z,0
2016-12-20T05:46:16.758Z,0
2016-12-20T05:47:16.736Z,0
2016-12-20T05:48:16.717Z,0
2016-12-20T05:49:16.702Z,0
2016-12-20T05:50:16.679Z,0
2016-12-20T05:51:16.659Z,0
2016-12-20T05:52:16.637Z,0
2016-12-20T05:53:16.619Z,0
2016-12-20T05:54:16.633Z,0
2016-12-20T05:55:16.576Z,0
2016-12-20T05:56:16.559Z,0
2016-12-20T05:57:16.537Z,0
2016-12-20T05:58:16.520Z,0
2016-12-20T05:59:16.502Z,0
2016-12-20T06:00:16.509Z,0
2016-12-20T06:01:16.772Z,0
2016-12-20T06:02:16.437Z,0
2016-12-20T06:03:16.448Z,0
2016-12-20T06:04:16.404Z,0
2016-12-20T06:05:16.380Z,0
2016-12-20T06:06:16.361Z,0
2016-12-20T06:07:16.338Z,0
2016-12-20T06:08:16.319Z,0
2016-12-20T06:09:16.291Z,0
2016-12-20T06:10:16.276Z,0
2016-12-20T06:11:16.258Z,0
2016-12-20T06:12:16.243Z,0
2016-12-20T06:13:16.215Z,0
2016-12-20T06:14:16.197Z,0
2016-12-20T06:15:16.179Z,0
2016-12-20T06:16:16.156Z,0
2016-12-20T06:17:16.147Z,0
2016-12-20T06:18:16.125Z,0
2016-12-20T06:19:16.093Z,0
2016-12-20T06:20:16.080Z,0
2016-12-20T06:21:16.056Z,0
2016-12-20T06:22:16.036Z,0
2016-12-20T06:23:16.017Z,0
2016-12-20T06:24:15.998Z,0
2016-12-20T06:25:15.980Z,0
2016-12-20T06:26:15.959Z,0
2016-12-20T06:27:15.938Z,0
2016-12-20T06:28:15.916Z,0
2016-12-20T06:29:15.899Z,0
2016-12-20T06:30:15.875Z,0
2016-12-20T06:31:15.859Z,4
2016-12-20T06:32:15.834Z,4
2016-12-20T06:33:15.814Z,0
2016-12-20T06:34:15.793Z,4
2016-12-20T06:35:15.774Z,4
2016-12-20T06:36:15.757Z,4
2016-12-20T06:37:15.735Z,4
2016-12-20T06:38:15.714Z,4
2016-12-20T06:39:15.692Z,4
2016-12-20T06:40:15.673Z,8
2016-12-20T06:41:15.656Z,8
2016-12-20T06:42:15.640Z,8
2016-12-20T06:43:15.614Z,12
2016-12-20T06:44:15.915Z,12
2016-12-20T06:45:15.575Z,16
2016-12-20T06:46:15.559Z,16
2016-12-20T06:47:15.539Z,20
2016-12-20T06:48:15.516Z,24
2016-12-20T06:49:15.490Z,24
2016-12-20T06:50:15.481Z,28
2016-12-20T06:51:15.450Z,32
2016-12-20T06:52:15.437Z,36
2016-12-20T06:53:15.444Z,44
2016-12-20T06:54:15.393Z,52
2016-12-20T06:55:15.370Z,56
2016-12-20T06:56:15.352Z,64
2016-12-20T06:57:15.330Z,72
2016-12-20T06:58:15.311Z,80
2016-12-20T06:59:15.289Z,88
2016-12-20T07:00:15.274Z,100
2016-12-20T07:01:15.251Z,112
2016-12-20T07:02:15.245Z,120
2016-12-20T07:03:15.210Z,136
2016-12-20T07:04:15.188Z,148
2016-12-20T07:05:15.175Z,160
2016-12-20T07:06:15.150Z,176
2016-12-20T07:07:15.441Z,188
2016-12-20T07:08:15.113Z,200
2016-12-20T07:09:15.088Z,216
2016-12-20T07:10:15.068Z,232
2016-12-20T07:11:15.050Z,248
2016-12-20T07:12:15.030Z,264
2016-12-20T07:13:15.004Z,288
2016-12-20T07:14:14.994Z,304
2016-12-20T07:15:14.966Z,324
2016-12-20T07:16:14.949Z,336
2016-12-20T07:17:14.929Z,360
2016-12-20T07:18:14.914Z,376
2016-12-20T07:19:14.896Z,400
2016-12-20T07:20:14.867Z,416
2016-12-20T07:21:14.846Z,436
2016-12-20T07:22:14.826Z,460
2016-12-20T07:23:14.808Z,480
2016-12-20T07:24:14.786Z,508
2016-12-20T07:25:14.764Z,528
2016-12-20T07:26:14.747Z,556
2016-12-20T07:27:14.725Z,580
2016-12-20T07:28:14.706Z,604
2016-12-20T07:29:14.685Z,624
2016-12-20T07:30:14.670Z,644
2016-12-20T07:31:14.642Z,668
2016-12-20T07:32:14.624Z,688
2016-12-20T07:33:14.602Z,708
2016-12-20T07:34:14.582Z,732
2016-12-20T07:35:14.563Z,752
2016-12-20T07:36:14.545Z,772
2016-12-20T07:37:14.520Z,796
2016-12-20T07:38:14.509Z,816
2016-12-20T07:39:14.484Z,844
2016-12-20T07:40:14.460Z,864
2016-12-20T07:41:14.450Z,884
2016-12-20T07:42:14.420Z,908
2016-12-20T07:43:14.402Z,928
2016-12-20T07:44:14.382Z,948
2016-12-20T07:45:14.368Z,964
2016-12-20T07:46:14.343Z,984
2016-12-20T07:47:14.320Z,1004
2016-12-20T07:48:14.300Z,1020
2016-12-20T07:49:14.285Z,1036
2016-12-20T07:50:14.261Z,1052
2016-12-20T07:51:14.240Z,1072
2016-12-20T07:52:14.220Z,1088
2016-12-20T07:53:14.201Z,1104
2016-12-20T07:54:14.182Z,1120
2016-12-20T07:55:14.161Z,1136
2016-12-20T07:56:14.137Z,1148
2016-12-20T07:57:14.123Z,1164
2016-12-20T07:58:14.101Z,1184
2016-12-20T07:59:14.080Z,1196
2016-12-20T08:00:14.061Z,1212
2016-12-20T08:01:14.049Z,1232
2016-12-20T08:02:14.050Z,1248
2016-12-20T08:03:13.998Z,1260
2016-12-20T08:04:13.979Z,1272
2016-12-20T08:05:13.959Z,1288
2016-12-20T08:06:13.942Z,1300
2016-12-20T08:07:13.919Z,1312
2016-12-20T08:08:13.910Z,1328
2016-12-20T08:09:13.883Z,1348
2016-12-20T08:10:13.865Z,1364
2016-12-20T08:11:13.841Z,1368
2016-12-20T08:12:13.822Z,1380
2016-12-20T08:13:13.800Z,1388
2016-12-20T08:14:13.782Z,1404
2016-12-20T08:15:13.759Z,1416
2016-12-20T08:16:13.743Z,1428
2016-12-20T08:17:13.722Z,1436
2016-12-20T08:18:13.702Z,1452
2016-12-20T08:19:13.684Z,1464
2016-12-20T08:20:13.665Z,1476
2016-12-20T08:21:13.645Z,1488
2016-12-20T08:22:13.624Z,1500
2016-12-20T08:23:13.601Z,1504
2016-12-20T08:24:13.581Z,1512
2016-12-20T08:25:13.563Z,1516
2016-12-20T08:26:13.546Z,1524
2016-12-20T08:27:13.525Z,1540
2016-12-20T08:28:13.508Z,1544
2016-12-20T08:29:13.487Z,1552
2016-12-20T08:30:13.466Z,1564
2016-12-20T08:31:13.443Z,1568
2016-12-20T08:32:13.423Z,1572
2016-12-20T08:33:13.408Z,1576
2016-12-20T08:34:13.388Z,1588
2016-12-20T08:35:13.364Z,1600
2016-12-20T08:36:13.344Z,1608
2016-12-20T08:37:13.349Z,1616
2016-12-20T08:38:13.306Z,1624
2016-12-20T08:39:13.288Z,1636
2016-12-20T08:40:13.266Z,1644
2016-12-20T08:41:13.247Z,1652
2016-12-20T08:42:13.238Z,1656
2016-12-20T08:43:13.210Z,1660
2016-12-20T08:44:13.189Z,1672
2016-12-20T08:45:13.176Z,1672
2016-12-20T08:46:13.152Z,1676
2016-12-20T08:47:13.129Z,1684
2016-12-20T08:48:13.113Z,1688
2016-12-20T08:49:13.091Z,1700
2016-12-20T08:50:13.074Z,1708
2016-12-20T08:51:13.053Z,1716
2016-12-20T08:52:13.031Z,1720
2016-12-20T08:53:13.015Z,1724
2016-12-20T08:54:12.998Z,1728
2016-12-20T08:55:12.979Z,1724
2016-12-20T08:56:12.956Z,1736
2016-12-20T08:57:12.966Z,1748
2016-12-20T08:58:12.914Z,1756
2016-12-20T08:59:12.897Z,1756
2016-12-20T09:00:12.892Z,1756
2016-12-20T09:01:12.865Z,1764
2016-12-20T09:02:12.839Z,1772
2016-12-20T09:03:12.827Z,1776
2016-12-20T09:04:12.813Z,1780
2016-12-20T09:05:13.140Z,1784
2016-12-20T09:06:12.761Z,1796
2016-12-20T09:07:12.747Z,1800
2016-12-20T09:08:12.727Z,1808
2016-12-20T09:09:12.711Z,1816
2016-12-20T09:10:12.687Z,1824
2016-12-20T09:11:12.669Z,1832
2016-12-20T09:12:12.649Z,1832
2016-12-20T09:13:12.628Z,1832
2016-12-20T09:14:12.609Z,1832
2016-12-20T09:15:12.593Z,1828
2016-12-20T09:16:12.575Z,1828
2016-12-20T09:17:12.552Z,1836
2016-12-20T09:18:12.529Z,1840
2016-12-20T09:19:12.513Z,1840
2016-12-20T09:20:12.493Z,1844
2016-12-20T09:21:12.488Z,1840
2016-12-20T09:22:12.458Z,1844
2016-12-20T09:23:12.437Z,1844
2016-12-20T09:24:12.425Z,1840
2016-12-20T09:25:12.395Z,1840
2016-12-20T09:26:12.382Z,1844
2016-12-20T09:27:12.363Z,1856
2016-12-20T09:28:12.359Z,1864
2016-12-20T09:29:12.328Z,1872
2016-12-20T09:30:12.303Z,1876
2016-12-20T09:31:12.285Z,1876
2016-12-20T09:32:12.263Z,1880
2016-12-20T09:33:12.252Z,1880
2016-12-20T09:34:12.238Z,1880
2016-12-20T09:35:12.214Z,1880
2016-12-20T09:36:12.188Z,1888
2016-12-20T09:37:12.169Z,1896
2016-12-20T09:38:12.152Z,1924
2016-12-20T09:39:12.178Z,1912
2016-12-20T09:40:12.112Z,1916
2016-12-20T09:41:12.127Z,1904
2016-12-20T09:42:12.085Z,1892
2016-12-20T09:43:12.061Z,1892
2016-12-20T09:44:12.039Z,1892
2016-12-20T09:45:12.018Z,1888
2016-12-20T09:46:12.002Z,1892
2016-12-20T09:47:11.983Z,1888
2016-12-20T09:48:11.965Z,1892
2016-12-20T09:49:12.268Z,1892
2016-12-20T09:50:11.923Z,1892
2016-12-20T09:51:11.909Z,1892
2016-12-20T09:52:11.888Z,1896
2016-12-20T09:53:11.870Z,1900
2016-12-20T09:54:11.852Z,1900
2016-12-20T09:55:11.833Z,1900
2016-12-20T09:56:11.847Z,1904
2016-12-20T09:57:11.795Z,1900
2016-12-20T09:58:11.777Z,1900
2016-12-20T09:59:11.757Z,1904
2016-12-20T10:00:11.738Z,1908
2016-12-20T10:01:11.737Z,1912
2016-12-20T10:02:11.702Z,1924
2016-12-20T10:03:11.683Z,1928
2016-12-20T10:04:11.666Z,1940
2016-12-20T10:05:11.648Z,1948
2016-12-20T10:06:11.623Z,1960
2016-12-20T10:07:11.612Z,1960
2016-12-20T10:08:11.594Z,1964
2016-12-20T10:09:11.572Z,1968
2016-12-20T10:10:11.555Z,1980
2016-12-20T10:11:11.537Z,1984
2016-12-20T10:12:11.520Z,1984
2016-12-20T10:13:11.494Z,1988
2016-12-20T10:14:11.794Z,1992
2016-12-20T10:15:11.460Z,1996
2016-12-20T10:16:11.444Z,2000
2016-12-20T10:17:11.428Z,2004
2016-12-20T10:18:11.409Z,2008
2016-12-20T10:19:11.392Z,2016
2016-12-20T10:20:11.371Z,2032
2016-12-20T10:21:11.358Z,2040
2016-12-20T10:22:11.334Z,2056
2016-12-20T10:23:11.316Z,2064
2016-12-20T10:24:11.613Z,2072
2016-12-20T10:25:11.281Z,2088
2016-12-20T10:26:11.260Z,2080
2016-12-20T10:27:11.239Z,2084
2016-12-20T10:28:11.221Z,2088
2016-12-20T10:29:11.205Z,2092
2016-12-20T10:30:11.187Z,2092
2016-12-20T10:31:11.169Z,2092
2016-12-20T10:32:11.148Z,2096
2016-12-20T10:33:11.133Z,2096
2016-12-20T10:34:11.120Z,2100
2016-12-20T10:35:11.094Z,2104
2016-12-20T10:36:11.080Z,2104
2016-12-20T10:37:11.064Z,2104
2016-12-20T10:38:11.052Z,2100
2016-12-20T10:39:11.030Z,2100
2016-12-20T10:40:11.005Z,2100
2016-12-20T10:41:10.991Z,2104
2016-12-20T10:42:10.974Z,2112
2016-12-20T10:43:10.954Z,2108
2016-12-20T10:44:10.937Z,2112
2016-12-20T10:45:11.234Z,2116
2016-12-20T10:46:10.905Z,2112
2016-12-20T10:47:10.880Z,2104
2016-12-20T10:48:10.864Z,2108
2016-12-20T10:49:10.845Z,2116
2016-12-20T10:50:10.836Z,2120
2016-12-20T10:51:10.818Z,2128
2016-12-20T10:52:11.112Z,2124
2016-12-20T10:53:10.776Z,2144
2016-12-20T10:54:10.761Z,2152
2016-12-20T10:55:10.740Z,2132
2016-12-20T10:56:10.722Z,2128
2016-12-20T10:57:10.706Z,2124
2016-12-20T10:58:10.690Z,2132
2016-12-20T10:59:10.668Z,2136
2016-12-20T11:00:10.649Z,2136
2016-12-20T11:01:10.634Z,2140
2016-12-20T11:02:10.625Z,2148
2016-12-20T11:03:10.597Z,2152
2016-12-20T11:04:10.581Z,2160
2016-12-20T11:05:10.599Z,2168
2016-12-20T11:06:10.547Z,2168
2016-12-20T11:07:10.533Z,2172
2016-12-20T11:08:10.508Z,2172
2016-12-20T11:09:10.493Z,2168
2016-12-20T11:10:10.478Z,2160
2016-12-20T11:11:10.457Z,2148
2016-12-20T11:12:10.440Z,2144
2016-12-20T11:13:10.427Z,2140
2016-12-20T11:14:10.402Z,2128
2016-12-20T11:15:10.393Z,2124
2016-12-20T11:16:10.371Z,2120
2016-12-20T11:17:10.356Z,2108
2016-12-20T11:18:10.356Z,2096
2016-12-20T11:19:10.320Z,2084
2016-12-20T11:20:10.300Z,2076
2016-12-20T11:21:10.290Z,2068
2016-12-20T11:22:10.271Z,2064
2016-12-20T11:23:10.253Z,2060
2016-12-20T11:24:10.234Z,2052
2016-12-20T11:25:10.214Z,2052
2016-12-20T11:26:10.201Z,2048
2016-12-20T11:27:10.180Z,2040
2016-12-20T11:28:10.165Z,2040
2016-12-20T11:29:10.148Z,2036
2016-12-20T11:30:10.128Z,2032
2016-12-20T11:31:10.113Z,2028
2016-12-20T11:32:10.094Z,2032
2016-12-20T11:33:10.081Z,2028
2016-12-20T11:34:10.376Z,2020
2016-12-20T11:35:10.044Z,2020
2016-12-20T11:36:10.024Z,2020
2016-12-20T11:37:10.009Z,2020
2016-12-20T11:38:09.993Z,2024
2016-12-20T11:39:09.976Z,2020
2016-12-20T11:40:09.955Z,2024
2016-12-20T11:41:09.943Z,2024
2016-12-20T11:42:09.924Z,2024
2016-12-20T11:43:09.907Z,2024
2016-12-20T11:44:09.888Z,2028
2016-12-20T11:45:09.875Z,2028
2016-12-20T11:46:09.854Z,2028
2016-12-20T11:47:09.837Z,2028
2016-12-20T11:48:09.816Z,2028
2016-12-20T11:49:09.807Z,2024
2016-12-20T11:50:09.787Z,2024
2016-12-20T11:51:09.764Z,2024
2016-12-20T11:52:09.754Z,2020
2016-12-20T11:53:09.738Z,2016
2016-12-20T11:54:09.713Z,2008
2016-12-20T11:55:09.698Z,2012
2016-12-20T11:56:09.678Z,2004
2016-12-20T11:57:09.667Z,2004
2016-12-20T11:58:09.651Z,2008
2016-12-20T11:59:09.656Z,2008
2016-12-20T12:00:09.613Z,2004
2016-12-20T12:01:09.913Z,2008
2016-12-20T12:02:09.582Z,2000
2016-12-20T12:03:09.567Z,1996
2016-12-20T12:04:09.544Z,1992
2016-12-20T12:05:09.528Z,1992
2016-12-20T12:06:09.512Z,1988
2016-12-20T12:07:09.497Z,1984
2016-12-20T12:08:09.475Z,1984
2016-12-20T12:09:09.455Z,1980
2016-12-20T12:10:09.441Z,1980
2016-12-20T12:11:09.425Z,1976
2016-12-20T12:12:09.405Z,1976
2016-12-20T12:13:09.389Z,1968
2016-12-20T12:14:09.376Z,1960
2016-12-20T12:15:09.358Z,1956
2016-12-20T12:16:09.338Z,1952
2016-12-20T12:17:09.323Z,1952
2016-12-20T12:18:09.308Z,1944
2016-12-20T12:19:09.288Z,1944
2016-12-20T12:20:09.277Z,1944
2016-12-20T12:21:09.253Z,1940
2016-12-20T12:22:09.242Z,1936
2016-12-20T12:23:09.231Z,1932
2016-12-20T12:24:09.206Z,1924
2016-12-20T12:25:09.191Z,1924
2016-12-20T12:26:09.171Z,1920
2016-12-20T12:27:09.153Z,1916
2016-12-20T12:28:09.456Z,1912
2016-12-20T12:29:09.120Z,1904
2016-12-20T12:30:09.109Z,1900
2016-12-20T12:31:09.088Z,1892
2016-12-20T12:32:09.069Z,1888
2016-12-20T12:33:09.371Z,1888
2016-12-20T12:34:09.036Z,1884
2016-12-20T12:35:09.024Z,1884
2016-12-20T12:36:09.004Z,1880
2016-12-20T12:37:08.986Z,1880
2016-12-20T12:38:08.966Z,1872
2016-12-20T12:39:08.950Z,1872
2016-12-20T12:40:08.933Z,1864
2016-12-20T12:41:08.922Z,1864
2016-12-20T12:42:08.905Z,1860
2016-12-20T12:43:08.889Z,1852
2016-12-20T12:44:08.865Z,1848
2016-12-20T12:45:08.855Z,1844
2016-12-20T12:46:08.837Z,1840
2016-12-20T12:47:08.814Z,1840
2016-12-20T12:48:08.800Z,1836
2016-12-20T12:49:08.782Z,1832
2016-12-20T12:50:08.769Z,1836
2016-12-20T12:51:08.751Z,1832
2016-12-20T12:52:08.728Z,1832
2016-12-20T12:53:08.715Z,1832
2016-12-20T12:54:08.696Z,1824
2016-12-20T12:55:08.680Z,1816
2016-12-20T12:56:08.671Z,1816
2016-12-20T12:57:08.646Z,1812
2016-12-20T12:58:08.633Z,1804
2016-12-20T12:59:08.643Z,1800
2016-12-20T13:00:08.602Z,1800
2016-12-20T13:01:08.581Z,1800
2016-12-20T13:02:08.563Z,1796
2016-12-20T13:03:08.551Z,1796
2016-12-20T13:04:08.851Z,1796
2016-12-20T13:05:08.514Z,1796
2016-12-20T13:06:08.498Z,1792
2016-12-20T13:07:08.480Z,1792
2016-12-20T13:08:08.462Z,1792
2016-12-20T13:09:08.447Z,1788
2016-12-20T13:10:08.432Z,1780
2016-12-20T13:11:08.413Z,1780
2016-12-20T13:12:08.396Z,1780
2016-12-20T13:13:08.381Z,1772
2016-12-20T13:14:08.360Z,1768
2016-12-20T13:15:08.346Z,1760
2016-12-20T13:16:08.329Z,1756
2016-12-20T13:17:08.309Z,1752
2016-12-20T13:18:08.297Z,1752
2016-12-20T13:19:08.282Z,1752
2016-12-20T13:20:08.264Z,1752
2016-12-20T13:21:08.241Z,1740
2016-12-20T13:22:08.228Z,1728
2016-12-20T13:23:08.206Z,1720
2016-12-20T13:24:08.221Z,1716
2016-12-20T13:25:08.174Z,1708
2016-12-20T13:26:08.154Z,1700
2016-12-20T13:27:08.179Z,1692
2016-12-20T13:28:08.438Z,1684
2016-12-20T13:29:08.428Z,1680
2016-12-20T13:30:08.096Z,1672
2016-12-20T13:31:08.076Z,1664
2016-12-20T13:32:08.059Z,1656
2016-12-20T13:33:08.066Z,1652
2016-12-20T13:34:08.028Z,1644
2016-12-20T13:35:08.008Z,1640
2016-12-20T13:36:07.990Z,1632
2016-12-20T13:37:07.978Z,1628
2016-12-20T13:38:07.955Z,1620
2016-12-20T13:39:07.941Z,1608
2016-12-20T13:40:07.924Z,1600
2016-12-20T13:41:07.940Z,1588
2016-12-20T13:42:07.887Z,1576
2016-12-20T13:43:07.871Z,1564
2016-12-20T13:44:07.858Z,1556
2016-12-20T13:45:07.839Z,1548
2016-12-20T13:46:07.824Z,1540
2016-12-20T13:47:07.802Z,1532
2016-12-20T13:48:08.101Z,1524
2016-12-20T13:49:07.768Z,1520
2016-12-20T13:50:07.757Z,1516
2016-12-20T13:51:07.738Z,1512
2016-12-20T13:52:08.036Z,1500
2016-12-20T13:53:07.703Z,1492
2016-12-20T13:54:07.682Z,1484
2016-12-20T13:55:07.668Z,1468
2016-12-20T13:56:07.650Z,1456
2016-12-20T13:57:07.634Z,1444
2016-12-20T13:58:07.616Z,1432
2016-12-20T13:59:07.631Z,1420
2016-12-20T14:00:07.617Z,1412
2016-12-20T14:01:07.880Z,1404